Time;durP1;ratioP1;P1;durP2;ratioP2;P2;SDS_P1;SDS_P2;PMS_P1;PMS_P2;Temp;Humidity;BMP_temperature;BMP_pressure;BME280_temperature;BME280_humidity;BME280_pressure;Samples;Min_cycle;Max_cycle;Signal;HPM_P1;HPM_P2
2022/12/30 00:00:21;;;;;;;26.48;14.95;;;;;;;5.01;100.00;99115.00;5074539;28;20169;-60
2022/12/30 00:02:46;;;;;;;26.40;14.45;;;;;;;4.50;100.00;99030.47;5075026;28;20181;-60
2022/12/30 00:05:12;;;;;;;22.67;14.73;;;;;;;4.92;100.00;99085.38;5075240;28;20197;-60
2022/12/30 00:07:37;;;;;;;24.23;15.20;;;;;;;4.82;100.00;99068.66;5074390;28;20620;-60
2022/12/30 00:10:03;;;;;;;22.90;15.93;;;;;;;4.87;100.00;99087.28;5073217;28;20200;-60
2022/12/30 00:35:01;;;;;;;21.33;13.35;;;;;;;4.97;100.00;99129.66;5074550;28;20234;-60
2022/12/30 00:37:27;;;;;;;19.30;13.18;;;;;;;4.86;100.00;99098.41;5074177;28;20176;-60
2022/12/30 00:39:52;;;;;;;19.52;13.40;;;;;;;4.64;100.00;99058.19;5073775;28;20185;-60
2022/12/30 00:45:05;;;;;;;18.27;13.13;;;;;;;4.88;100.00;99096.63;5074234;28;20325;-60
2022/12/30 00:47:30;;;;;;;19.67;12.57;;;;;;;4.93;100.00;99097.31;5073315;28;20307;-60
2022/12/30 00:58:07;;;;;;;13.52;9.38;;;;;;;4.81;100.00;99074.66;5073563;28;20545;-60
2022/12/30 01:00:32;;;;;;;11.65;7.68;;;;;;;5.01;100.00;99100.44;5073947;28;20173;-60
2022/12/30 01:02:58;;;;;;;12.45;8.35;;;;;;;4.32;100.00;98991.84;5073874;28;20180;-60
2022/12/30 01:05:23;;;;;;;14.80;8.93;;;;;;;4.83;100.00;99065.19;5073203;28;20206;-60
2022/12/30 01:07:49;;;;;;;7.90;6.40;;;;;;;4.98;100.00;99100.56;5073309;28;20196;-60
2022/12/30 01:10:14;;;;;;;11.52;7.90;;;;;;;4.60;100.00;99020.75;5073174;28;20631;-60
2022/12/30 01:12:40;;;;;;;9.00;7.55;;;;;;;5.21;100.00;99128.78;5073941;28;20173;-60
2022/12/30 01:15:06;;;;;;;21.48;11.90;;;;;;;5.23;100.00;99106.47;5073643;28;20185;-60
2022/12/30 01:17:33;;;;;;;18.13;10.52;;;;;;;5.33;100.00;99102.69;5072728;28;20212;-60
2022/12/30 01:19:58;;;;;;;14.27;9.43;;;;;;;4.84;100.00;99007.06;5072990;28;20358;-60
2022/12/30 01:22:24;;;;;;;8.82;6.22;;;;;;;5.52;100.00;99106.25;5070416;28;20716;-60
2022/12/30 01:24:50;;;;;;;8.43;6.68;;;;;;;5.18;100.00;99045.97;5070732;28;20213;-60
2022/12/30 01:27:15;;;;;;;5.18;4.60;;;;;;;5.41;100.00;99063.91;5070706;28;20189;-60
2022/12/30 01:29:42;;;;;;;6.07;5.35;;;;;;;5.63;100.00;99106.69;5070794;28;20311;-60
2022/12/30 01:32:13;;;;;;;5.45;4.80;;;;;;;5.61;100.00;99093.06;5070198;28;20727;-60
2022/12/30 01:34:39;;;;;;;18.40;8.60;;;;;;;5.60;100.00;99090.56;5071316;28;20700;-60
2022/12/30 01:37:05;;;;;;;21.17;9.57;;;;;;;5.68;100.00;99104.78;5070446;28;20189;-60
2022/12/30 01:39:31;;;;;;;18.95;9.50;;;;;;;5.44;100.00;99062.06;5070316;28;20185;-60
2022/12/30 01:41:57;;;;;;;16.75;9.63;;;;;;;5.35;100.00;99047.00;5070362;28;20200;-60
2022/12/30 01:44:44;;;;;;;13.63;8.40;;;;;;;5.74;100.00;99107.13;5070272;28;20651;-60
2022/12/30 01:47:14;;;;;;;15.60;10.50;;;;;;;5.64;100.00;99090.38;5070312;28;20188;-60
2022/12/30 01:49:44;;;;;;;13.48;9.63;;;;;;;5.67;100.00;99103.13;5070172;28;20184;-60
2022/12/30 01:52:10;;;;;;;15.40;10.10;;;;;;;5.54;100.00;99086.47;5070225;28;20188;-60
2022/12/30 01:54:36;;;;;;;15.68;10.88;;;;;;;5.55;100.00;99088.16;5073047;28;20264;-60
2022/12/30 01:57:04;;;;;;;16.58;11.77;;;;;;;5.48;100.00;99086.72;5072781;28;20177;-60
2022/12/30 01:59:31;;;;;;;16.63;10.90;;;;;;;5.45;100.00;99080.84;5073255;28;20220;-60
2022/12/30 02:01:56;;;;;;;15.63;10.55;;;;;;;5.14;100.00;99034.97;5072465;28;20252;-60
2022/12/30 02:04:25;;;;;;;18.27;10.80;;;;;;;5.46;100.00;99085.94;5070175;28;20268;-60
2022/12/30 02:07:14;;;;;;;22.05;14.25;;;;;;;5.52;100.00;99102.81;5070217;28;20228;-60
2022/12/30 02:09:40;;;;;;;24.50;16.33;;;;;;;5.43;100.00;99083.47;5070227;28;20227;-60
2022/12/30 02:12:06;;;;;;;26.15;16.70;;;;;;;5.22;100.00;99040.66;5070780;28;20235;-60
2022/12/30 02:14:36;;;;;;;25.23;16.60;;;;;;;5.44;100.00;99071.50;5070003;28;20185;-60
2022/12/30 02:17:08;;;;;;;33.90;18.25;;;;;;;5.40;100.00;99078.47;5069864;28;20262;-60
2022/12/30 02:19:42;;;;;;;25.88;16.30;;;;;;;5.29;100.00;99078.03;5070425;28;20228;-60
2022/12/30 02:22:26;;;;;;;25.23;15.77;;;;;;;5.24;100.00;99071.41;5070733;28;20183;-60
2022/12/30 02:25:01;;;;;;;20.10;14.30;;;;;;;4.97;100.00;99065.56;5069895;28;20698;-60
2022/12/30 02:27:32;;;;;;;20.75;14.90;;;;;;;4.98;100.00;99059.53;5069878;28;20173;-60
2022/12/30 02:30:35;;;;;;;20.05;14.10;;;;;;;4.87;100.00;99043.69;5070329;28;20723;-60
2022/12/30 02:33:29;;;;;;;23.23;14.98;;;;;;;4.46;100.00;98997.31;5030832;28;20249;-60
2022/12/30 02:36:04;;;;;;;27.85;14.25;;;;;;;4.81;100.00;99037.94;5048925;28;20193;-60
2022/12/30 02:38:49;;;;;;;14.45;10.82;;;;;;;4.83;100.00;99048.97;5053828;28;20173;-60
2022/12/30 02:47:04;;;;;;;16.65;12.85;;;;;;;4.59;100.00;99045.53;5034361;28;20166;-60
2022/12/30 02:49:33;;;;;;;19.10;12.48;;;;;;;4.71;100.00;99059.63;5033689;28;20661;-60
2022/12/30 02:52:16;;;;;;;22.63;14.00;;;;;;;4.24;100.00;98981.88;5033611;28;20194;-60
2022/12/30 02:54:48;;;;;;;24.95;16.08;;;;;;;4.58;100.00;99015.69;5034366;28;20166;-60
2022/12/30 02:57:31;;;;;;;22.48;13.88;;;;;;;4.59;100.00;99025.03;5033635;28;20229;-60
2022/12/30 03:06:23;;;;;;;23.60;13.82;;;;;;;4.87;100.00;99079.56;5033486;28;20241;-60
2022/12/30 03:09:03;;;;;;;24.58;14.20;;;;;;;4.53;100.00;99024.41;5039985;28;20205;-60
2022/12/30 03:11:38;;;;;;;20.20;12.93;;;;;;;4.92;100.00;99084.53;5057581;28;20283;-60
2022/12/30 03:14:14;;;;;;;26.65;13.77;;;;;;;4.93;100.00;99075.94;5076048;28;20172;-60
2022/12/30 03:16:45;;;;;;;19.63;13.10;;;;;;;4.51;100.00;99026.19;5075450;28;20635;-60
2022/12/30 03:19:16;;;;;;;21.55;14.10;;;;;;;4.73;100.00;99063.81;5075369;28;20640;-60
2022/12/30 03:21:42;;;;;;;25.15;14.43;;;;;;;4.51;100.00;99032.16;5075674;28;20169;-60
2022/12/30 03:27:03;;;;;;;21.35;14.48;;;;;;;4.29;100.00;99030.38;5075804;28;20164;-60
2022/12/30 03:29:33;;;;;;;24.50;14.60;;;;;;;4.43;100.00;99085.38;5075006;28;20181;-60
2022/12/30 03:31:59;;;;;;;20.52;13.10;;;;;;;4.26;100.00;99059.47;5075355;28;20233;-60
2022/12/30 03:34:26;;;;;;;22.45;13.93;;;;;;;4.37;100.00;99080.47;5074781;28;20200;-60
2022/12/30 03:36:58;;;;;;;22.08;14.07;;;;;;;3.84;100.00;99002.00;5075218;28;20566;-60
2022/12/30 03:39:32;;;;;;;22.75;14.23;;;;;;;4.46;100.00;99087.84;5075592;28;20244;-60
2022/12/30 03:41:59;;;;;;;19.95;12.52;;;;;;;3.93;100.00;98990.63;5074977;28;20164;-60
2022/12/30 03:44:25;;;;;;;16.80;12.30;;;;;;;3.91;100.00;98993.22;5072955;28;20704;-60
2022/12/30 03:46:51;;;;;;;24.30;13.23;;;;;;;4.01;100.00;99040.69;5074826;28;20296;-60
2022/12/30 03:49:18;;;;;;;19.10;11.88;;;;;;;4.34;100.00;99092.53;5074808;28;20188;-60
2022/12/30 03:51:43;;;;;;;16.65;11.02;;;;;;;4.28;100.00;99093.59;5074778;28;20196;-60
2022/12/30 03:54:09;;;;;;;16.08;9.95;;;;;;;4.38;100.00;99099.25;5075020;28;20181;-60
2022/12/30 03:56:34;;;;;;;15.82;10.68;;;;;;;3.94;100.00;99049.47;5074627;28;20192;-60
2022/12/30 03:59:00;;;;;;;20.13;12.13;;;;;;;3.94;100.00;99048.59;5074560;28;20169;-60
2022/12/30 04:01:25;;;;;;;23.77;13.00;;;;;;;4.21;100.00;99083.59;5074310;28;20192;-60
2022/12/30 04:03:50;;;;;;;20.55;13.48;;;;;;;3.94;100.00;99036.66;5074213;28;20203;-60
2022/12/30 04:06:16;;;;;;;20.13;13.93;;;;;;;4.00;100.00;99041.59;5075073;28;20200;-60
2022/12/30 04:08:41;;;;;;;25.35;15.23;;;;;;;4.34;100.00;99093.38;5074396;28;20177;-60
2022/12/30 04:11:07;;;;;;;21.77;14.40;;;;;;;4.08;100.00;99049.84;5074388;28;20189;-60
2022/12/30 04:13:32;;;;;;;25.05;16.15;;;;;;;3.81;100.00;99014.91;5074302;28;20560;-60
2022/12/30 04:15:57;;;;;;;26.83;14.98;;;;;;;4.30;100.00;99098.63;5074286;28;20216;-60
2022/12/30 04:18:23;;;;;;;26.25;16.20;;;;;;;4.29;100.00;99086.72;5074214;28;20205;-60
2022/12/30 04:20:50;;;;;;;24.17;14.45;;;;;;;4.39;100.00;99093.22;5074192;28;20276;-60
2022/12/30 04:23:16;;;;;;;22.13;13.65;;;;;;;4.07;100.00;99045.63;5074168;28;20181;-60
2022/12/30 04:25:41;;;;;;;26.17;15.15;;;;;;;4.04;100.00;99053.41;5074190;28;20201;-60
2022/12/30 04:28:07;;;;;;;24.63;14.65;;;;;;;4.27;100.00;99073.94;5074109;28;20264;-60
2022/12/30 04:30:33;;;;;;;29.23;17.55;;;;;;;4.17;100.00;99062.34;5074044;28;20292;-60
2022/12/30 04:32:59;;;;;;;28.90;17.15;;;;;;;4.50;100.00;99101.38;5074764;28;20193;-60
2022/12/30 04:35:25;;;;;;;31.35;18.20;;;;;;;4.44;100.00;99084.47;5073893;28;20627;-60
2022/12/30 04:37:50;;;;;;;27.80;16.80;;;;;;;4.29;100.00;99055.97;5074426;28;20272;-60
2022/12/30 04:40:16;;;;;;;28.25;16.92;;;;;;;4.23;100.00;99046.78;5074084;28;20183;-60
2022/12/30 04:42:43;;;;;;;24.55;16.75;;;;;;;4.50;100.00;99094.53;5073815;28;20658;-60
2022/12/30 04:45:09;;;;;;;27.90;16.20;;;;;;;4.63;100.00;99100.94;5073930;28;20201;-60
2022/12/30 04:47:34;;;;;;;33.00;16.50;;;;;;;4.27;100.00;99055.22;5073651;28;20246;-60
2022/12/30 04:50:00;;;;;;;25.15;15.55;;;;;;;4.54;100.00;99098.66;5073904;28;20600;-60
2022/12/30 04:52:25;;;;;;;30.50;18.52;;;;;;;4.22;100.00;99055.38;5073816;28;20177;-60
2022/12/30 04:54:51;;;;;;;28.67;16.60;;;;;;;4.19;100.00;99049.50;5073467;28;20180;-60
2022/12/30 04:57:16;;;;;;;28.25;17.17;;;;;;;4.23;100.00;99040.81;5072830;28;20198;-60
2022/12/30 04:59:41;;;;;;;28.98;17.23;;;;;;;4.54;100.00;99092.72;5073478;28;20181;-60
2022/12/30 05:02:07;;;;;;;27.33;16.95;;;;;;;4.60;100.00;99113.84;5073403;28;20716;-60
2022/12/30 05:04:32;;;;;;;29.27;15.95;;;;;;;4.27;100.00;99053.47;5073212;28;20242;-60
2022/12/30 05:06:58;;;;;;;29.73;16.05;;;;;;;4.51;100.00;99095.38;5073283;28;20177;-60
2022/12/30 05:09:23;;;;;;;25.58;17.23;;;;;;;4.57;100.00;99113.94;5074033;28;20177;-60
2022/12/30 05:11:48;;;;;;;26.42;15.38;;;;;;;4.50;100.00;99109.91;5051019;28;20192;-60
2022/12/30 05:14:14;;;;;;;23.88;14.88;;;;;;;4.37;100.00;99111.19;5051067;28;20277;-60
2022/12/30 05:16:39;;;;;;;31.77;17.67;;;;;;;4.25;100.00;99075.75;5050951;28;20645;-60
2022/12/30 05:19:05;;;;;;;32.67;16.20;;;;;;;4.15;100.00;99059.00;5051336;28;20182;-60
2022/12/30 05:21:30;;;;;;;24.90;16.85;;;;;;;4.14;100.00;99066.75;5050808;28;20182;-60
2022/12/30 05:26:40;;;;;;;29.08;15.93;;;;;;;4.18;100.00;99087.06;5051355;28;20220;-60
2022/12/30 05:29:05;;;;;;;37.00;19.45;;;;;;;4.54;100.00;99138.84;5050898;28;20190;-60
2022/12/30 05:31:31;;;;;;;71.03;32.58;;;;;;;4.57;100.00;99133.59;5050419;28;20263;-60
2022/12/30 05:33:56;;;;;;;68.07;30.35;;;;;;;4.26;100.00;99069.72;5050518;28;20181;-60
2022/12/30 05:36:22;;;;;;;42.72;20.58;;;;;;;3.95;100.00;99025.53;5050635;28;20255;-60
2022/12/30 05:38:47;;;;;;;31.50;19.52;;;;;;;4.61;100.00;99125.75;5050785;28;20178;-60
2022/12/30 05:41:13;;;;;;;42.13;21.17;;;;;;;4.52;100.00;99126.06;5050411;28;20201;-60
2022/12/30 05:43:38;;;;;;;39.33;21.98;;;;;;;4.34;100.00;99102.78;5069247;28;20276;-60
2022/12/30 05:46:03;;;;;;;31.80;18.63;;;;;;;4.14;100.00;99088.06;5072516;28;20193;-60
2022/12/30 05:48:29;;;;;;;31.25;18.95;;;;;;;3.86;100.00;99035.22;5072579;28;20189;-60
2022/12/30 05:50:54;;;;;;;31.08;19.42;;;;;;;4.46;100.00;99140.81;5073085;28;20264;-60
2022/12/30 05:53:20;;;;;;;32.20;18.40;;;;;;;4.51;100.00;99150.03;5072802;28;20173;-60
2022/12/30 05:55:45;;;;;;;31.15;19.25;;;;;;;4.42;100.00;99124.69;5072467;28;20211;-60
2022/12/30 05:58:13;;;;;;;30.02;18.63;;;;;;;4.39;100.00;99114.56;5072437;28;20181;-60
2022/12/30 06:00:39;;;;;;;32.42;18.75;;;;;;;4.61;100.00;99146.25;5072122;28;20177;-60
2022/12/30 06:03:04;;;;;;;32.20;18.35;;;;;;;4.39;100.00;99096.63;5072941;28;20177;-60
2022/12/30 06:05:30;;;;;;;32.72;19.58;;;;;;;4.56;100.00;99126.81;5072263;28;20266;-60
2022/12/30 06:07:55;;;;;;;32.72;19.40;;;;;;;4.02;100.00;99036.41;5072962;28;20181;-60
2022/12/30 06:10:21;;;;;;;32.85;17.95;;;;;;;4.37;100.00;99089.88;5072643;28;20256;-60
2022/12/30 06:12:47;;;;;;;32.50;19.35;;;;;;;4.73;100.00;99139.91;5072314;28;20188;-60
2022/12/30 06:15:12;;;;;;;30.52;19.38;;;;;;;4.34;100.00;99080.56;5072289;28;20188;-60
2022/12/30 06:17:37;;;;;;;29.52;18.52;;;;;;;4.49;100.00;99104.84;5072227;28;20203;-60
2022/12/30 06:20:03;;;;;;;32.88;19.35;;;;;;;4.44;100.00;99093.91;5050273;28;20177;-60
2022/12/30 06:22:29;;;;;;;31.75;19.45;;;;;;;4.70;100.00;99134.88;5049979;28;20691;-60
2022/12/30 06:24:54;;;;;;;32.13;18.75;;;;;;;4.51;100.00;99114.16;5050271;28;20217;-60
2022/12/30 06:27:19;;;;;;;32.83;20.10;;;;;;;4.83;100.00;99162.59;5049775;28;20573;-60
2022/12/30 06:29:45;;;;;;;31.75;18.88;;;;;;;4.57;100.00;99107.97;5049950;28;20265;-60
2022/12/30 06:32:10;;;;;;;29.13;18.23;;;;;;;4.69;100.00;99128.91;5050322;28;20671;-60
2022/12/30 06:34:36;;;;;;;28.30;17.85;;;;;;;4.46;100.00;99085.28;5049790;28;20189;-60
2022/12/30 06:37:01;;;;;;;30.30;19.00;;;;;;;4.54;100.00;99106.34;5050021;28;20247;-60
2022/12/30 06:39:26;;;;;;;30.63;18.65;;;;;;;4.58;100.00;99107.94;5049608;28;20186;-60
2022/12/30 06:41:52;;;;;;;29.30;17.10;;;;;;;4.81;100.00;99156.69;5049658;28;20182;-60
2022/12/30 06:44:17;;;;;;;24.63;15.90;;;;;;;4.92;100.00;99162.31;5050205;28;20726;-60
2022/12/30 06:46:42;;;;;;;25.73;16.02;;;;;;;4.93;100.00;99176.78;5050374;28;20214;-60
2022/12/30 06:49:08;;;;;;;45.03;17.75;;;;;;;4.92;100.00;99172.56;5049872;28;20231;-60
2022/12/30 06:51:34;;;;;;;29.05;17.55;;;;;;;5.03;100.00;99175.59;5084218;28;20613;-60
2022/12/30 06:53:59;;;;;;;30.20;16.15;;;;;;;4.66;100.00;99118.75;5090029;28;20194;-60
2022/12/30 06:56:25;;;;;;;27.60;16.40;;;;;;;4.78;100.00;99138.84;5090534;28;20568;-60
2022/12/30 06:58:50;;;;;;;27.75;18.27;;;;;;;4.81;100.00;99137.91;5090037;28;20234;-60
2022/12/30 07:01:15;;;;;;;28.60;17.27;;;;;;;5.09;100.00;99175.41;5089824;28;20189;-60
2022/12/30 07:03:41;;;;;;;25.98;17.25;;;;;;;4.71;100.00;99101.50;5089644;28;20678;-60
2022/12/30 07:06:06;;;;;;;29.67;20.05;;;;;;;5.00;100.00;99147.47;5090031;28;20230;-60
2022/12/30 07:08:32;;;;;;;31.33;20.50;;;;;;;5.10;100.00;99161.66;5090063;28;20549;-60
2022/12/30 07:10:57;;;;;;;35.55;22.35;;;;;;;5.29;100.00;99196.03;5069474;28;20660;-60
2022/12/30 07:13:23;;;;;;;37.90;24.48;;;;;;;5.05;100.00;99152.44;5069856;28;20185;-60
2022/12/30 07:15:48;;;;;;;74.35;41.90;;;;;;;5.06;100.00;99141.28;5069579;28;20284;-60
2022/12/30 07:18:13;;;;;;;81.72;43.95;;;;;;;5.22;100.00;99158.69;5069499;28;20181;-60
2022/12/30 07:20:39;;;;;;;85.82;49.70;;;;;;;5.55;100.00;99198.50;5072779;28;20207;-60
2022/12/30 07:23:05;;;;;;;89.47;49.83;;;;;;;5.67;100.00;99225.47;5073293;28;20193;-60
2022/12/30 07:25:31;;;;;;;91.15;53.58;;;;;;;5.37;100.00;99160.69;5072610;28;20634;-60
2022/12/30 07:28:00;;;;;;;90.95;53.58;;;;;;;5.44;100.00;99171.56;5072819;28;20173;-60
2022/12/30 07:30:26;;;;;;;85.85;52.22;;;;;;;5.52;100.00;99174.69;5072774;28;20189;-60
2022/12/30 07:32:52;;;;;;;84.70;51.28;;;;;;;5.42;100.00;99148.53;5072693;28;20208;-60
2022/12/30 07:35:18;;;;;;;88.80;53.10;;;;;;;5.16;100.00;99114.44;5072665;28;20200;-60
2022/12/30 07:37:44;;;;;;;94.15;51.20;;;;;;;5.40;100.00;99160.59;5072689;28;20200;-60
2022/12/30 07:40:10;;;;;;;89.78;52.92;;;;;;;5.57;100.00;99191.63;5073144;28;20181;-60
2022/12/30 07:42:35;;;;;;;96.10;52.28;;;;;;;5.63;100.00;99209.34;5074602;28;20541;-60
2022/12/30 07:45:01;;;;;;;94.88;53.40;;;;;;;5.71;100.00;99204.78;5075109;28;20197;-60
2022/12/30 07:47:30;;;;;;;86.90;50.55;;;;;;;5.44;100.00;99162.16;5074907;28;20181;-60
2022/12/30 07:49:55;;;;;;;86.70;47.70;;;;;;;5.30;100.00;99128.44;5074797;28;20589;-60
2022/12/30 07:52:21;;;;;;;87.90;48.53;;;;;;;5.59;100.00;99164.16;5074750;28;20234;-60
2022/12/30 07:54:46;;;;;;;81.32;47.67;;;;;;;5.93;100.00;99210.84;5074717;28;20169;-60
2022/12/30 07:57:12;;;;;;;83.20;47.17;;;;;;;5.86;100.00;99181.16;5074920;28;20205;-60
2022/12/30 07:59:37;;;;;;;68.75;42.60;;;;;;;5.90;100.00;99167.28;5074658;28;20184;-60
2022/12/30 08:02:03;;;;;;;67.13;41.60;;;;;;;6.27;100.00;99212.94;5074628;28;20169;-60
2022/12/30 08:04:28;;;;;;;70.10;42.03;;;;;;;6.28;100.00;99214.63;5074182;28;20233;-60
2022/12/30 08:06:53;;;;;;;68.80;42.25;;;;;;;6.35;100.00;99216.09;5074801;28;20208;-60
2022/12/30 08:09:19;;;;;;;66.70;40.85;;;;;;;6.16;100.00;99174.84;5075016;28;20181;-60
2022/12/30 08:11:44;;;;;;;67.20;41.17;;;;;;;6.53;100.00;99216.19;5074165;28;20212;-60
2022/12/30 08:14:10;;;;;;;57.83;36.65;;;;;;;6.62;100.00;99220.13;5074373;28;20259;-60
2022/12/30 08:16:35;;;;;;;62.15;37.70;;;;;;;6.74;100.00;99225.63;5074345;28;20204;-60
2022/12/30 08:19:00;;;;;;;66.88;40.10;;;;;;;6.53;100.00;99180.19;5074076;28;20172;-60
2022/12/30 08:21:26;;;;;;;71.43;38.95;;;;;;;6.64;100.00;99177.22;5073972;28;20256;-60
2022/12/30 08:23:51;;;;;;;71.30;38.90;;;;;;;7.10;100.00;99231.00;5074472;28;20169;-60
2022/12/30 08:26:20;;;;;;;71.68;41.20;;;;;;;7.21;100.00;99232.22;5074364;28;20201;-60
2022/12/30 08:28:45;;;;;;;65.70;40.30;;;;;;;7.30;100.00;99226.69;5074036;28;20601;-60
2022/12/30 08:31:25;;;;;;;80.45;43.90;;;;;;;7.24;100.00;99185.78;5072930;28;20278;-60
2022/12/30 08:33:51;;;;;;;67.30;40.95;;;;;;;7.55;100.00;99224.75;5073690;28;20271;-60
2022/12/30 08:36:20;;;;;;;77.47;43.72;;;;;;;7.41;100.00;99188.44;5073963;28;20721;-61
2022/12/30 08:38:48;;;;;;;81.88;46.03;;;;;;;7.56;100.00;99195.50;5073854;28;20268;-60
2022/12/30 08:41:15;;;;;;;82.15;45.90;;;;;;;7.89;100.00;99242.97;5073817;28;20209;-61
2022/12/30 08:43:41;;;;;;;79.63;45.88;;;;;;;7.57;100.00;99168.84;5073815;28;20264;-60
2022/12/30 08:46:07;;;;;;;85.07;47.40;;;;;;;8.03;100.00;99235.44;5073633;28;20204;-60
2022/12/30 08:48:33;;;;;;;87.18;48.03;;;;;;;8.17;100.00;99238.25;5073714;28;20181;-60
2022/12/30 08:50:59;;;;;;;87.85;48.17;;;;;;;8.20;100.00;99217.50;5073985;28;20220;-61
2022/12/30 08:53:25;;;;;;;88.80;50.97;;;;;;;8.30;100.00;99223.91;5073624;28;20554;-60
2022/12/30 08:56:18;;;;;;;91.78;50.10;;;;;;;8.33;100.00;99223.75;5073462;28;20220;-61
2022/12/30 08:58:45;;;;;;;86.05;47.78;;;;;;;8.06;100.00;99158.00;5072903;28;20193;-60
2022/12/30 09:01:18;;;;;;;78.90;45.38;;;;;;;8.49;100.00;99218.69;5074228;28;20187;-61
2022/12/30 09:03:44;;;;;;;76.43;41.95;;;;;;;8.27;100.00;99166.50;5073383;28;20177;-60
2022/12/30 09:06:12;;;;;;;73.65;44.10;;;;;;;8.63;100.00;99195.69;5073513;28;20236;-61
2022/12/30 09:08:38;;;;;;;76.28;43.00;;;;;;;8.74;100.00;99204.56;5073326;28;20651;-61
2022/12/30 09:11:12;;;;;;;67.15;42.85;;;;;;;8.73;100.00;99182.25;5073753;28;20180;-60
2022/12/30 09:13:39;;;;;;;68.78;42.97;;;;;;;8.63;100.00;99144.91;5073689;28;20271;-60
2022/12/30 09:16:07;;;;;;;64.50;40.65;;;;;;;8.96;100.00;99181.97;5073121;28;20272;-61
2022/12/30 09:18:33;;;;;;;67.28;40.00;;;;;;;9.01;100.00;99190.31;5073145;28;20173;-61
2022/12/30 09:20:59;;;;;;;66.30;38.95;;;;;;;8.80;100.00;99147.50;5073023;28;20180;-62
2022/12/30 09:23:24;;;;;;;68.97;38.47;;;;;;;9.08;100.00;99177.94;5073270;28;20252;-61
2022/12/30 09:25:50;;;;;;;59.85;36.58;;;;;;;8.92;100.00;99133.97;5072833;28;20208;-61
2022/12/30 09:28:15;;;;;;;63.45;37.25;;;;;;;8.96;100.00;99138.09;5073164;28;20177;-60
2022/12/30 09:30:41;;;;;;;63.25;36.17;;;;;;;9.28;100.00;99186.34;5073095;28;20233;-60
2022/12/30 09:33:07;;;;;;;60.38;36.22;;;;;;;9.07;100.00;99146.13;5072419;28;20193;-61
2022/12/30 09:35:32;;;;;;;66.22;36.83;;;;;;;9.37;100.00;99185.88;5072758;28;20720;-60
2022/12/30 09:37:58;;;;;;;65.28;37.17;;;;;;;9.11;100.00;99121.84;5072723;28;20173;-59
2022/12/30 09:40:38;;;;;;;53.67;33.17;;;;;;;9.53;100.00;99184.16;5073485;28;20632;-59
2022/12/30 09:43:15;;;;;;;52.22;32.92;;;;;;;9.51;100.00;99178.25;5073018;28;20169;-59
2022/12/30 09:45:47;;;;;;;57.55;33.00;;;;;;;9.61;100.00;99179.44;5070881;28;20246;-59
2022/12/30 09:48:23;;;;;;;49.25;32.33;;;;;;;9.32;100.00;99118.13;5070505;28;20239;-59
2022/12/30 09:50:54;;;;;;;52.60;31.98;;;;;;;9.53;100.00;99138.47;5070491;28;20204;-59
2022/12/30 09:53:40;;;;;;;47.22;30.77;;;;;;;9.76;100.00;99170.88;5070832;28;20172;-59
2022/12/30 09:56:19;;;;;;;51.92;32.03;;;;;;;9.80;100.00;99164.63;5070671;28;20276;-59
2022/12/30 09:58:45;;;;;;;54.97;31.40;;;;;;;9.79;100.00;99157.78;5070693;28;20169;-59
2022/12/30 10:01:18;;;;;;;53.80;29.60;;;;;;;9.52;100.00;99101.56;5070573;28;20695;-59
2022/12/30 10:03:43;;;;;;;47.20;29.98;;;;;;;9.78;100.00;99138.03;5070044;28;20327;-59
2022/12/30 10:06:25;;;;;;;43.20;27.90;;;;;;;9.85;100.00;99152.28;5070125;28;20660;-59
2022/12/30 10:09:21;;;;;;;48.65;30.65;;;;;;;9.87;100.00;99151.28;5070562;28;20677;-59
2022/12/30 10:12:01;;;;;;;46.70;29.42;;;;;;;9.89;100.00;99146.88;5070840;28;20280;-59
2022/12/30 10:14:54;;;;;;;53.75;31.00;;;;;;;9.73;100.00;99105.59;5070285;28;20179;-59
2022/12/30 10:17:54;;;;;;;49.72;31.23;;;;;;;9.95;100.00;99133.63;5045552;28;20189;-59
2022/12/30 10:20:38;;;;;;;42.92;28.05;;;;;;;10.07;99.54;99133.91;5050204;28;20208;-59
2022/12/30 10:23:40;;;;;;;44.90;29.70;;;;;;;10.12;97.92;99130.13;5050127;28;20291;-59
2022/12/30 10:26:15;;;;;;;48.50;29.20;;;;;;;10.09;98.97;99119.97;5049805;28;20695;-59
2022/12/30 10:28:54;;;;;;;46.90;29.40;;;;;;;10.07;98.91;99101.13;5050587;28;20227;-59
2022/12/30 10:31:23;;;;;;;60.53;31.58;;;;;;;9.93;98.50;99070.00;5050473;28;20310;-59
2022/12/30 10:33:51;;;;;;;51.72;31.60;;;;;;;10.26;98.38;99128.44;5049812;28;20652;-59
2022/12/30 10:36:28;;;;;;;47.78;31.83;;;;;;;10.12;98.51;99088.75;5030441;28;20601;-59
2022/12/30 10:39:12;;;;;;;69.78;40.03;;;;;;;10.30;98.73;99111.00;5030261;28;20705;-59
2022/12/30 10:41:53;;;;;;;57.05;35.45;;;;;;;10.37;98.92;99109.75;5030523;28;20178;-59
2022/12/30 10:44:28;;;;;;;49.97;31.17;;;;;;;10.42;99.26;99105.13;5030162;28;20625;-59
2022/12/30 10:47:30;;;;;;;45.75;28.95;;;;;;;10.50;99.04;99095.22;5029662;28;20269;-59
2022/12/30 10:50:34;;;;;;;47.63;30.13;;;;;;;10.62;98.47;99089.31;5049624;28;20679;-59
2022/12/30 10:53:02;;;;;;;47.72;28.00;;;;;;;10.66;98.34;99081.28;5049465;28;20189;-59
2022/12/30 10:55:34;;;;;;;43.78;28.33;;;;;;;10.71;98.65;99078.41;5052734;28;20197;-59
2022/12/30 10:58:11;;;;;;;45.97;29.08;;;;;;;10.64;98.01;99061.59;5053549;28;20176;-60
2022/12/30 11:00:40;;;;;;;46.42;29.88;;;;;;;10.83;99.03;99080.28;5053982;28;20189;-59
2022/12/30 11:03:20;;;;;;;53.20;30.60;;;;;;;10.67;98.84;99038.09;5054216;28;20213;-59
2022/12/30 11:05:45;;;;;;;51.30;30.83;;;;;;;10.90;98.74;99066.06;5053847;28;20201;-59
2022/12/30 11:08:28;;;;;;;46.40;30.50;;;;;;;10.96;98.48;99076.03;5053500;28;20186;-59
2022/12/30 11:11:03;;;;;;;52.95;29.40;;;;;;;10.82;98.17;99048.41;5053607;28;20165;-60
2022/12/30 11:16:13;;;;;;;43.55;28.70;;;;;;;11.03;98.94;99064.41;5076046;28;20168;-60
2022/12/30 11:18:44;;;;;;;49.67;31.02;;;;;;;10.98;98.48;99049.13;5075407;28;20181;-60
2022/12/30 11:21:10;;;;;;;52.03;31.77;;;;;;;10.80;98.15;99010.59;5075697;28;20176;-60
2022/12/30 11:23:38;;;;;;;50.30;30.48;;;;;;;10.79;99.12;99003.75;5075276;28;20566;-60
2022/12/30 11:26:19;;;;;;;49.40;30.83;;;;;;;10.87;98.41;99006.72;5075958;28;20225;-60
2022/12/30 11:28:46;;;;;;;48.70;31.17;;;;;;;11.12;98.55;99043.13;5075104;28;20184;-60
2022/12/30 11:31:15;;;;;;;46.22;29.60;;;;;;;11.15;98.80;99054.13;5075082;28;20247;-60
2022/12/30 11:33:53;;;;;;;52.80;29.77;;;;;;;10.96;99.43;99011.31;5075099;28;20256;-60
2022/12/30 11:36:27;;;;;;;46.35;29.17;;;;;;;11.19;99.38;99049.59;5075112;28;20177;-60
2022/12/30 11:38:55;;;;;;;46.13;30.30;;;;;;;10.98;100.00;99033.59;5075346;28;20240;-60
2022/12/30 11:41:27;;;;;;;48.08;30.55;;;;;;;11.00;100.00;99044.72;5075543;28;20177;-60
2022/12/30 11:43:59;;;;;;;53.08;32.53;;;;;;;11.01;100.00;99051.56;5075496;28;20173;-60
2022/12/30 11:46:50;;;;;;;55.50;31.17;;;;;;;10.93;100.00;99032.22;5075124;28;20204;-60
2022/12/30 11:49:27;;;;;;;51.35;31.67;;;;;;;11.01;100.00;99050.72;5075126;28;20527;-60
2022/12/30 11:51:56;;;;;;;47.13;29.63;;;;;;;10.91;100.00;99042.66;5075413;28;20176;-60
2022/12/30 11:54:31;;;;;;;49.10;29.58;;;;;;;10.89;100.00;99041.94;5074711;28;20174;-60
2022/12/30 11:57:01;;;;;;;43.05;29.08;;;;;;;10.78;100.00;99017.59;5074729;28;20186;-59
2022/12/30 11:59:37;;;;;;;44.72;28.48;;;;;;;10.87;100.00;99042.94;5075033;28;20161;-60
2022/12/30 12:02:15;;;;;;;43.33;27.85;;;;;;;10.72;100.00;99020.56;5074627;28;20196;-60
2022/12/30 12:04:41;;;;;;;45.05;26.67;;;;;;;10.49;100.00;99000.38;5075104;28;20240;-60
2022/12/30 12:07:15;;;;;;;44.00;26.90;;;;;;;10.71;100.00;99031.84;5074499;28;20192;-60
2022/12/30 12:09:46;;;;;;;42.05;27.20;;;;;;;10.69;100.00;99018.97;5074808;28;20548;-59
2022/12/30 12:12:17;;;;;;;45.20;27.25;;;;;;;10.59;100.00;98983.38;5075057;28;20177;-59
2022/12/30 12:15:01;;;;;;;43.33;26.35;;;;;;;10.91;100.00;99023.72;5074486;28;20165;-60
2022/12/30 12:17:45;;;;;;;43.08;27.48;;;;;;;10.98;100.00;99019.84;5074376;28;20647;-60
2022/12/30 12:20:17;;;;;;;39.30;25.17;;;;;;;10.98;100.00;99019.84;5074367;28;20659;-60